Akron-Canton Regional Airport

Airport
ICAO code: 
KCAK
Summary
ICAO Region: 
NAM
Territory: 
Location: 
Akron, Ohio,
Coordinates: 
Aerial View: 
40° 54' 54.032" N, 81° 26' 12.791" W
Airport WX: 
Cumulonimbus
Metar
Observation
KCAK 271051Z 26009KT 10SM OVC028 M02/M07 A3004 RMK AO2 SLP187 T10171067 $
Station
Akron, Akron-Canton Regional Airport
Date/Time
2021-11-27 10:51:00
Wind direction
260°
Wind speed
09 kts
Lowest cloud amount
overcast
Temperature
-1.7°C
Dew point
-6.7°C
Humidity
68%
Weather condition
n/a

Description

Akron-Canton Regional Airport is a public use airport, located 16 km southeast of Akron and 16 km northwest of Canton, in the city of Green, in southern Summit County, Ohio.

Climatology

Humid continental climate (Köppen climate classification Dfa) - characterized by four seasons: cold, windy, snowy winters, mild springs, hot, humid summers, and crisp and relatively short autumns. Precipitation reaches its lowest in January and February and peaks in summer and latter half of spring.

Runways

Designator Length Width Surface Rops
14/32 1707 46 ASP Yes/Yes
5/23 2316 46 ASP Yes/Yes
1/19 2317 46 ASP Yes/Yes
Airport map: 
Aerial View: 

Accidents and Serious Incidents at or in the vicinity of KCAK

SKYbrary Partners:

Safety knowledge contributed by: